Time;durP1;ratioP1;P1;durP2;ratioP2;P2;SDS_P1;SDS_P2;PMS_P1;PMS_P2;Temp;Humidity;BMP_temperature;BMP_pressure;BME280_temperature;BME280_humidity;BME280_pressure;Samples;Min_cycle;Max_cycle;Signal;HPM_P1;HPM_P2
2022/11/12 00:01:31;;;;;;;4.10;3.40;;;;;;;21.00;28.82;102096.22;4533874;28;20049;-62
2022/11/12 00:04:00;;;;;;;4.97;4.47;;;;;;;21.00;28.97;102092.50;4535696;28;20817;-62
2022/11/12 00:06:29;;;;;;;5.43;4.30;;;;;;;20.98;28.72;102092.81;4533063;28;20041;-65
2022/11/12 00:08:58;;;;;;;4.75;4.05;;;;;;;20.99;28.72;102103.16;4536575;28;20318;-62
2022/11/12 00:11:27;;;;;;;4.10;3.35;;;;;;;20.99;28.77;102102.28;4534562;28;20045;-62
2022/11/12 00:13:56;;;;;;;3.80;3.40;;;;;;;20.98;28.79;102107.19;4535734;28;20808;-62
2022/11/12 00:16:25;;;;;;;3.50;3.20;;;;;;;20.97;28.85;102105.50;4535251;28;20502;-63
2022/11/12 00:18:54;;;;;;;3.60;2.95;;;;;;;20.98;28.92;102109.22;4534998;28;20040;-63
2022/11/12 00:21:23;;;;;;;3.63;3.10;;;;;;;20.97;28.70;102104.66;4533673;28;20044;-63
2022/11/12 00:23:52;;;;;;;3.53;2.75;;;;;;;20.96;28.52;102109.56;4549047;28;20045;-63
2022/11/12 00:26:21;;;;;;;3.58;3.10;;;;;;;20.95;28.01;102107.81;4536785;28;20044;-62
2022/11/12 00:28:50;;;;;;;3.78;3.10;;;;;;;20.95;28.11;102104.94;4533915;28;20104;-62
2022/11/12 00:31:19;;;;;;;3.60;3.13;;;;;;;20.96;27.88;102118.19;4533774;28;20053;-62
2022/11/12 00:33:48;;;;;;;3.67;3.00;;;;;;;20.94;27.92;102114.75;4534398;28;20041;-62
2022/11/12 00:36:17;;;;;;;3.35;3.05;;;;;;;20.94;28.09;102117.63;4534019;28;20041;-61
2022/11/12 00:38:46;;;;;;;3.67;2.80;;;;;;;20.93;27.99;102115.91;4532886;28;20521;-61
2022/11/12 00:41:15;;;;;;;3.88;2.97;;;;;;;20.86;28.33;102104.09;4532899;28;20045;-62
2022/11/12 00:43:44;;;;;;;3.45;2.55;;;;;;;20.94;28.09;102122.50;4535051;28;20037;-62
2022/11/12 00:46:13;;;;;;;3.30;2.30;;;;;;;20.94;28.32;102128.25;4533304;28;20048;-62
2022/11/12 00:48:42;;;;;;;2.47;2.13;;;;;;;20.94;28.48;102128.25;4534342;28;20045;-62
2022/11/12 00:51:11;;;;;;;2.95;2.30;;;;;;;20.91;28.33;102124.03;4534636;28;20044;-61
2022/11/12 00:53:40;;;;;;;3.35;2.28;;;;;;;20.93;28.23;102127.38;4535738;28;20049;-62
2022/11/12 00:56:09;;;;;;;2.47;1.90;;;;;;;20.92;28.09;102131.44;4535157;28;20037;-62
2022/11/12 00:58:38;;;;;;;2.92;2.33;;;;;;;20.92;27.85;102125.72;4533873;28;20045;-61
2022/11/12 01:01:12;;;;;;;2.83;2.03;;;;;;;20.91;27.69;102129.78;4534179;28;20049;-62
2022/11/12 01:03:42;;;;;;;2.10;1.80;;;;;;;20.92;27.53;102130.59;4534365;28;20782;-62
2022/11/12 01:06:16;;;;;;;3.22;2.30;;;;;;;20.90;27.34;102133.81;4533328;28;20040;-61
2022/11/12 01:08:47;;;;;;;2.47;2.20;;;;;;;20.92;27.47;102142.06;4533859;28;20045;-62
2022/11/12 01:11:22;;;;;;;3.05;2.30;;;;;;;20.89;27.38;102132.13;4534050;28;20128;-61
2022/11/12 01:13:55;;;;;;;3.03;2.17;;;;;;;20.90;27.13;102142.41;4534219;28;20041;-62
2022/11/12 01:16:28;;;;;;;2.88;2.05;;;;;;;20.90;27.26;102135.84;4532458;28;20045;-62
2022/11/12 01:18:59;;;;;;;3.10;2.17;;;;;;;20.90;27.41;102135.84;4533878;28;20041;-62
2022/11/12 01:21:31;;;;;;;2.10;1.83;;;;;;;20.89;27.18;102135.00;4541184;28;20049;-62
2022/11/12 01:24:00;;;;;;;2.97;2.10;;;;;;;20.89;27.19;102132.13;4532265;28;20064;-61
2022/11/12 01:26:29;;;;;;;2.53;2.15;;;;;;;20.89;27.21;102137.00;4533784;28;20037;-62
2022/11/12 01:28:58;;;;;;;2.58;2.33;;;;;;;20.88;27.26;102136.19;4533295;28;20029;-62
2022/11/12 01:31:29;;;;;;;2.10;1.90;;;;;;;20.87;27.26;102139.38;4533882;28;20726;-62
2022/11/12 01:34:01;;;;;;;2.40;2.20;;;;;;;20.86;27.20;102135.66;4534163;28;20611;-61
2022/11/12 01:36:33;;;;;;;2.47;2.10;;;;;;;20.87;26.97;102137.34;4533743;28;20045;-62
2022/11/12 01:39:07;;;;;;;2.55;1.95;;;;;;;20.86;27.29;102138.53;4533064;28;20045;-62
2022/11/12 01:41:38;;;;;;;2.50;2.10;;;;;;;20.86;27.11;102137.66;4530734;28;20050;-62
2022/11/12 01:44:12;;;;;;;2.28;1.83;;;;;;;20.85;27.15;102136.00;4532535;28;20580;-61
2022/11/12 01:47:03;;;;;;;2.42;1.63;;;;;;;20.85;27.21;102139.72;4534256;28;20045;-62
2022/11/12 01:49:49;;;;;;;2.65;2.10;;;;;;;20.85;27.52;102136.84;4532507;28;20056;-61
2022/11/12 01:52:23;;;;;;;2.83;2.10;;;;;;;20.85;27.42;102136.84;4533308;28;20045;-62
2022/11/12 01:54:56;;;;;;;2.00;1.77;;;;;;;20.84;27.06;102129.41;4531845;28;20557;-62
2022/11/12 01:57:35;;;;;;;3.13;2.03;;;;;;;20.84;26.98;102138.00;4533294;28;20623;-61
2022/11/12 02:00:08;;;;;;;2.40;1.85;;;;;;;20.81;26.49;102135.81;4526781;28;20073;-62
2022/11/12 02:02:38;;;;;;;2.28;1.90;;;;;;;20.83;26.43;102133.47;4532930;28;20045;-64
2022/11/12 02:05:10;;;;;;;2.83;1.95;;;;;;;20.80;26.66;102132.06;4536421;28;20050;-61
2022/11/12 02:07:41;;;;;;;2.22;2.03;;;;;;;20.82;26.51;102137.47;4530833;28;20040;-61
2022/11/12 02:10:09;;;;;;;2.85;2.10;;;;;;;20.82;26.43;102131.75;4533321;28;20053;-61
2022/11/12 02:15:27;;;;;;;2.50;1.90;;;;;;;20.79;26.85;102132.41;4533417;28;20041;-61
2022/11/12 02:17:57;;;;;;;2.45;2.10;;;;;;;20.82;26.52;102131.75;4532889;28;20045;-61
2022/11/12 02:20:26;;;;;;;2.72;1.92;;;;;;;20.81;26.61;102135.81;4532326;28;20156;-61
2022/11/12 02:22:55;;;;;;;2.42;2.00;;;;;;;20.81;26.58;102130.06;4532627;28;20041;-61
2022/11/12 02:25:26;;;;;;;2.58;2.10;;;;;;;20.80;26.37;102131.25;4531644;28;20049;-61
2022/11/12 02:27:57;;;;;;;2.30;2.00;;;;;;;20.79;26.62;102133.28;4534885;28;20048;-61
2022/11/12 02:30:37;;;;;;;2.35;2.00;;;;;;;20.79;26.26;102135.28;4533332;28;20597;-61
2022/11/12 02:33:06;;;;;;;2.95;2.10;;;;;;;20.79;26.31;102136.13;4533513;28;20044;-61
2022/11/12 02:35:35;;;;;;;2.50;2.30;;;;;;;20.75;26.84;102131.41;4534065;28;20131;-61
2022/11/12 02:38:05;;;;;;;2.13;1.85;;;;;;;20.74;26.63;102139.16;4532691;28;20033;-61
2022/11/12 02:40:34;;;;;;;2.45;1.85;;;;;;;20.78;26.53;102147.94;4533500;28;20600;-62
2022/11/12 02:43:03;;;;;;;2.60;2.17;;;;;;;20.76;26.56;102138.81;4532933;28;20077;-61
2022/11/12 02:45:32;;;;;;;2.00;1.80;;;;;;;20.77;26.31;102140.53;4535335;28;20053;-62
2022/11/12 02:48:01;;;;;;;2.58;2.10;;;;;;;20.76;26.72;102138.81;4533731;28;20596;-61
2022/11/12 02:50:30;;;;;;;2.38;1.90;;;;;;;20.76;26.71;102141.69;4531437;28;20053;-61
2022/11/12 02:52:59;;;;;;;2.55;2.10;;;;;;;20.75;26.48;102142.88;4535921;28;20045;-61
2022/11/12 02:55:28;;;;;;;2.72;2.03;;;;;;;20.66;26.27;102134.22;4537075;28;20098;-61
2022/11/12 02:57:58;;;;;;;2.80;2.10;;;;;;;20.76;25.96;102144.56;4536213;28;20137;-61
2022/11/12 03:00:27;;;;;;;2.55;2.08;;;;;;;20.76;26.25;102150.28;4535002;28;21009;-61
2022/11/12 03:02:59;;;;;;;2.50;2.10;;;;;;;20.72;26.25;102137.81;4536201;28;20044;-61
2022/11/12 03:05:33;;;;;;;2.65;2.05;;;;;;;20.76;26.12;102148.28;4535737;28;20049;-61
2022/11/12 03:08:06;;;;;;;2.45;2.22;;;;;;;20.75;26.31;102149.47;4536678;28;20046;-61
2022/11/12 03:10:38;;;;;;;1.80;1.70;;;;;;;20.74;26.10;102150.63;4534376;28;20045;-61
2022/11/12 03:13:08;;;;;;;2.78;1.90;;;;;;;20.75;26.19;102157.22;4536449;28;20041;-62
2022/11/12 03:15:37;;;;;;;1.98;1.67;;;;;;;20.74;25.94;102150.63;4535568;28;20045;-61
2022/11/12 03:18:06;;;;;;;1.95;1.75;;;;;;;20.71;26.02;102151.28;4535413;28;20033;-61
2022/11/12 03:20:35;;;;;;;2.10;1.90;;;;;;;20.72;26.09;102150.09;4535811;28;20045;-61
2022/11/12 03:23:06;;;;;;;3.17;2.20;;;;;;;20.73;25.94;102133.75;4536009;28;20045;-61
2022/11/12 03:25:36;;;;;;;3.17;2.10;;;;;;;20.72;25.80;102137.81;4535072;28;20049;-61
2022/11/12 03:28:08;;;;;;;2.28;1.80;;;;;;;20.64;25.87;102124.25;4527756;28;20040;-62
2022/11/12 03:30:40;;;;;;;2.55;2.15;;;;;;;20.71;26.02;102136.09;4536163;28;20049;-61
2022/11/12 03:33:12;;;;;;;2.33;1.80;;;;;;;20.70;25.94;102140.16;4535279;28;20556;-61
2022/11/12 03:35:41;;;;;;;2.10;1.90;;;;;;;20.69;26.01;102139.28;4534846;28;20041;-61
2022/11/12 03:38:11;;;;;;;2.22;1.85;;;;;;;20.70;26.00;102131.53;4535620;28;20568;-61
2022/11/12 03:40:40;;;;;;;2.58;1.80;;;;;;;20.70;25.95;102135.25;4534955;28;20049;-61
2022/11/12 03:43:09;;;;;;;2.35;1.70;;;;;;;20.68;26.10;102134.75;4535788;28;20049;-61
2022/11/12 03:45:38;;;;;;;1.95;1.65;;;;;;;20.70;25.77;102128.66;4535004;28;20040;-61
2022/11/12 03:48:06;;;;;;;2.30;1.80;;;;;;;20.69;25.53;102122.06;4534865;28;20021;-61
2022/11/12 03:50:35;;;;;;;2.30;1.60;;;;;;;20.67;25.55;102118.72;4534381;28;20053;-62
2022/11/12 03:53:04;;;;;;;2.55;1.70;;;;;;;20.68;25.60;102122.41;4536543;28;20049;-61
2022/11/12 03:55:34;;;;;;;2.03;1.60;;;;;;;20.68;25.72;102125.28;4536168;28;20041;-61
2022/11/12 03:58:02;;;;;;;3.03;1.70;;;;;;;20.67;25.43;102123.59;4534452;28;20242;-61
2022/11/12 04:00:31;;;;;;;1.55;1.45;;;;;;;20.66;25.47;102114.13;4535224;28;20053;-61
2022/11/12 04:03:00;;;;;;;2.05;1.70;;;;;;;20.65;25.34;102120.22;4533572;28;20049;-61
2022/11/12 04:08:35;;;;;;;1.70;1.60;;;;;;;20.65;25.23;102114.47;4533574;28;20045;-62
2022/11/12 04:11:13;;;;;;;2.47;1.63;;;;;;;20.64;25.02;102112.78;4534529;28;20164;-61
2022/11/12 04:13:46;;;;;;;2.20;1.50;;;;;;;20.63;25.43;102108.22;4534631;28;20541;-61
2022/11/12 04:21:49;;;;;;;2.78;1.60;;;;;;;20.63;25.62;102105.34;4535140;28;20127;-61
2022/11/12 04:22:07;;;;;;;2.00;1.63;;;;;;;20.61;25.51;102099.94;4533889;28;20046;-61
2022/11/12 04:27:29;;;;;;;1.73;1.50;;;;;;;20.59;25.81;102082.22;4534720;28;20045;-61
2022/11/12 04:32:50;;;;;;;1.80;1.50;;;;;;;20.61;25.88;102087.63;4533636;28;20053;-61
2022/11/12 04:35:20;;;;;;;1.67;1.50;;;;;;;20.59;25.80;102082.22;4535040;28;20057;-61
2022/11/12 04:37:49;;;;;;;1.67;1.42;;;;;;;20.60;25.99;102088.78;4534768;28;20041;-62
2022/11/12 04:46:04;;;;;;;1.48;1.30;;;;;;;20.60;25.88;102089.66;4534582;28;20048;-60
2022/11/12 04:48:33;;;;;;;1.83;1.58;;;;;;;20.59;25.72;102087.13;4533520;28;20037;-61
2022/11/12 04:52:03;;;;;;;2.97;1.58;;;;;;;20.57;25.82;102084.56;4535030;28;20053;-61
2022/11/12 04:53:53;;;;;;;1.60;1.35;;;;;;;20.57;25.62;102075.97;4532875;28;21031;-61
2022/11/12 04:56:22;;;;;;;1.65;1.35;;;;;;;20.58;26.06;102079.69;4533546;28;20160;-61
2022/11/12 04:58:51;;;;;;;1.35;1.17;;;;;;;20.56;25.92;102082.91;4533794;28;20049;-61
2022/11/12 05:01:20;;;;;;;1.50;1.17;;;;;;;20.57;26.25;102081.72;4534022;28;20040;-61
2022/11/12 05:03:49;;;;;;;1.40;1.30;;;;;;;20.56;26.15;102084.91;4534762;28;20045;-61
2022/11/12 05:07:00;;;;;;;1.58;1.17;;;;;;;20.56;26.05;102082.03;4535489;28;20572;-61
2022/11/12 05:09:10;;;;;;;2.08;1.30;;;;;;;20.56;25.53;102079.16;4535189;28;20140;-61
2022/11/12 05:11:39;;;;;;;2.22;1.38;;;;;;;20.54;25.50;102073.78;4532067;28;20076;-61
2022/11/12 05:14:08;;;;;;;1.48;1.35;;;;;;;20.52;25.38;102075.25;4530619;28;20045;-63
2022/11/12 05:16:38;;;;;;;1.50;1.30;;;;;;;20.54;25.48;102070.03;4536017;28;20238;-61
2022/11/12 05:19:07;;;;;;;1.88;1.23;;;;;;;20.51;25.73;102067.84;4534453;28;20053;-61
2022/11/12 05:24:24;;;;;;;1.30;1.20;;;;;;;20.53;25.97;102059.75;4534201;28;20045;-61
2022/11/12 05:26:53;;;;;;;1.58;1.20;;;;;;;20.53;26.31;102051.16;4533491;28;20714;-62
2022/11/12 05:29:22;;;;;;;1.63;1.17;;;;;;;20.54;26.06;102061.44;4527672;28;20045;-61
2022/11/12 05:31:51;;;;;;;1.40;1.10;;;;;;;20.53;26.05;102068.38;4534240;28;20600;-61
2022/11/12 05:34:20;;;;;;;1.70;1.40;;;;;;;20.52;26.24;102063.78;4534516;28;20152;-61
2022/11/12 05:36:50;;;;;;;1.40;1.30;;;;;;;20.51;26.03;102067.84;4532911;28;21226;-61
2022/11/12 05:39:18;;;;;;;1.40;1.30;;;;;;;20.51;25.90;102062.09;4532236;28;20181;-61
2022/11/12 05:41:47;;;;;;;1.42;1.20;;;;;;;20.49;25.79;102071.03;4535199;28;20485;-61
2022/11/12 05:44:17;;;;;;;1.85;1.20;;;;;;;20.50;25.83;102075.59;4533271;28;20045;-61
2022/11/12 05:46:46;;;;;;;1.17;1.08;;;;;;;20.48;25.87;102072.22;4533746;28;20076;-61
2022/11/12 05:49:16;;;;;;;1.45;1.23;;;;;;;20.48;25.64;102069.38;4534690;28;20548;-61
2022/11/12 05:51:45;;;;;;;1.92;1.13;;;;;;;20.48;25.80;102069.38;4533818;28;20678;-61
2022/11/12 05:54:14;;;;;;;1.60;1.20;;;;;;;20.48;25.66;102075.09;4533820;28;20129;-61
2022/11/12 05:56:43;;;;;;;1.75;1.05;;;;;;;20.48;25.46;102074.25;4534559;28;20049;-61
2022/11/12 05:59:13;;;;;;;1.42;1.08;;;;;;;20.47;25.50;102072.56;4531666;28;20053;-61
2022/11/12 06:01:45;;;;;;;1.15;1.05;;;;;;;20.47;25.64;102067.66;4534189;28;20608;-61
2022/11/12 06:04:15;;;;;;;1.42;1.13;;;;;;;20.46;25.22;102073.72;4534673;28;20045;-61
2022/11/12 06:06:44;;;;;;;1.10;1.00;;;;;;;20.46;25.22;102067.97;4533544;28;20076;-60
2022/11/12 06:09:13;;;;;;;1.95;1.10;;;;;;;20.46;24.91;102062.25;4535091;28;20034;-61
2022/11/12 06:11:42;;;;;;;1.80;1.10;;;;;;;20.45;25.33;102069.16;4533619;28;20040;-61
2022/11/12 06:14:11;;;;;;;1.27;1.15;;;;;;;20.46;25.22;102070.84;4533751;28;20041;-61
2022/11/12 06:16:40;;;;;;;1.20;1.02;;;;;;;20.43;25.57;102074.38;4535162;28;20045;-64
2022/11/12 06:19:09;;;;;;;2.05;1.10;;;;;;;20.45;25.46;102074.91;4533529;28;20679;-61
2022/11/12 06:21:38;;;;;;;1.58;1.10;;;;;;;20.44;25.44;102079.78;4532351;28;20753;-60
2022/11/12 06:24:07;;;;;;;1.92;0.98;;;;;;;20.41;25.17;102071.00;4533008;28;20576;-60
2022/11/12 06:26:36;;;;;;;1.25;0.90;;;;;;;20.43;25.66;102072.38;4532858;28;20774;-62
2022/11/12 06:29:05;;;;;;;1.48;1.05;;;;;;;20.41;25.53;102074.72;4532777;28;20883;-63
2022/11/12 06:31:34;;;;;;;1.30;1.20;;;;;;;20.43;25.44;102083.00;4532802;28;20545;-64
2022/11/12 06:34:04;;;;;;;3.40;1.80;;;;;;;20.42;25.96;102082.13;4534573;28;20128;-60
2022/11/12 06:36:34;;;;;;;6.30;2.85;;;;;;;20.42;26.29;102078.44;4533122;28;20045;-61
2022/11/12 06:39:03;;;;;;;4.80;2.25;;;;;;;20.41;26.03;102089.06;4531378;28;20046;-61
2022/11/12 06:41:32;;;;;;;2.85;1.38;;;;;;;20.41;26.05;102079.59;4535234;28;20049;-61
2022/11/12 06:44:03;;;;;;;3.67;2.10;;;;;;;20.40;26.14;102077.91;4532470;28;20037;-61
2022/11/12 06:46:32;;;;;;;3.65;1.63;;;;;;;20.40;25.92;102086.53;4533126;28;20738;-61
2022/11/12 06:49:01;;;;;;;2.78;1.60;;;;;;;20.39;25.75;102077.06;4532231;28;20044;-61
2022/11/12 06:51:31;;;;;;;2.15;1.50;;;;;;;20.36;25.58;102072.00;4532837;28;20140;-61
2022/11/12 06:53:59;;;;;;;1.42;1.20;;;;;;;20.37;25.82;102079.44;4533811;28;20041;-61
2022/11/12 06:56:28;;;;;;;1.67;1.13;;;;;;;20.39;25.33;102076.25;4533596;28;20037;-61
2022/11/12 06:58:57;;;;;;;1.83;1.20;;;;;;;20.35;25.49;102070.31;4531602;28;20599;-62
2022/11/12 07:01:27;;;;;;;2.00;1.30;;;;;;;20.37;25.42;102079.44;4531802;28;20049;-61
2022/11/12 07:03:56;;;;;;;2.97;1.60;;;;;;;20.38;25.67;102081.13;4533086;28;20049;-61
2022/11/12 07:06:25;;;;;;;1.27;1.05;;;;;;;20.37;25.83;102073.69;4532386;28;20139;-61
2022/11/12 07:08:54;;;;;;;1.77;1.10;;;;;;;20.35;26.00;102075.19;4531638;28;20119;-61
2022/11/12 07:11:23;;;;;;;1.52;1.00;;;;;;;20.38;26.28;102080.25;4531399;28;20045;-61
2022/11/12 07:13:52;;;;;;;1.50;1.00;;;;;;;20.38;26.24;102091.72;4532666;28;20029;-61
2022/11/12 07:16:21;;;;;;;1.80;0.90;;;;;;;20.34;26.30;102093.59;4532334;28;20045;-63
2022/11/12 07:18:50;;;;;;;0.80;0.80;;;;;;;20.36;26.32;102102.72;4531208;28;20560;-61
2022/11/12 07:21:20;;;;;;;0.90;0.82;;;;;;;20.36;26.46;102105.59;4531028;28;20081;-62
2022/11/12 07:23:49;;;;;;;1.13;1.00;;;;;;;20.33;26.07;102100.47;4540232;28;20124;-61
2022/11/12 07:26:20;;;;;;;1.20;1.00;;;;;;;20.35;26.24;102103.88;4531670;28;20045;-61
2022/11/12 07:28:51;;;;;;;1.05;0.90;;;;;;;20.34;26.29;102102.19;4531164;28;20049;-61
2022/11/12 07:31:20;;;;;;;1.10;1.00;;;;;;;20.33;26.31;102111.94;4529809;28;20053;-61
2022/11/12 07:33:49;;;;;;;1.10;0.80;;;;;;;20.32;26.49;102101.66;4529592;28;20040;-61
2022/11/12 07:36:20;;;;;;;1.25;1.00;;;;;;;20.33;26.50;102109.06;4532218;28;20037;-61
2022/11/12 07:38:51;;;;;;;1.00;0.90;;;;;;;20.33;26.63;102101.34;4533055;28;20041;-61
2022/11/12 07:41:23;;;;;;;1.40;0.90;;;;;;;20.33;26.34;102106.22;4534192;28;20048;-61
2022/11/12 07:43:53;;;;;;;1.20;1.00;;;;;;;20.32;26.50;102107.41;4534701;28;20481;-61
2022/11/12 07:46:26;;;;;;;1.05;0.90;;;;;;;20.33;26.50;102097.59;4532659;28;20120;-61
2022/11/12 07:48:56;;;;;;;1.17;0.95;;;;;;;20.31;26.61;102100.81;4534736;28;20049;-62
2022/11/12 07:51:27;;;;;;;1.15;0.82;;;;;;;20.29;26.46;102096.59;4531905;28;20054;-61
2022/11/12 07:53:58;;;;;;;1.23;1.05;;;;;;;20.31;26.74;102099.97;4526825;28;20049;-62
2022/11/12 07:56:28;;;;;;;1.42;0.93;;;;;;;20.31;26.85;102102.84;4533897;28;20041;-61
2022/11/12 07:58:57;;;;;;;1.10;1.00;;;;;;;20.29;26.97;102105.19;4532893;28;20041;-61
2022/11/12 08:01:34;;;;;;;1.20;0.90;;;;;;;20.29;26.83;102103.19;4535539;28;20041;-61
2022/11/12 08:04:07;;;;;;;1.10;1.00;;;;;;;20.30;26.62;102099.13;4534607;28;20041;-61
2022/11/12 08:06:36;;;;;;;1.35;1.00;;;;;;;20.29;26.73;102106.06;4535232;28;20535;-61
2022/11/12 08:09:07;;;;;;;1.75;0.90;;;;;;;20.28;27.18;102101.47;4534557;28;20049;-61
2022/11/12 08:11:36;;;;;;;1.15;0.85;;;;;;;20.29;27.04;102093.72;4534244;28;20212;-61
2022/11/12 08:14:05;;;;;;;1.13;0.95;;;;;;;20.28;27.08;102092.88;4534051;28;20572;-62
2022/11/12 08:16:34;;;;;;;1.30;1.20;;;;;;;20.28;27.22;102087.13;4534485;28;20041;-62
2022/11/12 08:19:03;;;;;;;1.10;1.00;;;;;;;20.28;27.46;102089.16;4532713;28;20125;-61
2022/11/12 08:21:32;;;;;;;1.23;1.00;;;;;;;20.27;27.54;102084.59;4536204;28;20589;-62
2022/11/12 08:24:01;;;;;;;1.42;1.00;;;;;;;20.26;27.73;102092.38;4535450;28;20045;-62
2022/11/12 08:26:30;;;;;;;1.15;1.00;;;;;;;20.26;27.60;102094.38;4535965;28;20076;-63
2022/11/12 08:28:59;;;;;;;1.25;1.00;;;;;;;20.27;27.50;102096.06;4535042;28;20045;-62
2022/11/12 08:31:28;;;;;;;1.23;1.00;;;;;;;20.27;27.66;102102.66;4548273;28;20053;-62
2022/11/12 08:33:57;;;;;;;1.20;1.00;;;;;;;20.27;27.55;102093.19;4534567;28;20143;-62
2022/11/12 08:36:26;;;;;;;1.50;1.02;;;;;;;20.27;27.80;102107.53;4534523;28;20045;-62
2022/11/12 08:38:54;;;;;;;0.90;0.80;;;;;;;20.29;27.97;102102.31;4533320;28;20025;-62
2022/11/12 08:41:24;;;;;;;0.95;0.85;;;;;;;20.27;28.04;102107.53;4534341;28;20049;-62
2022/11/12 08:43:52;;;;;;;1.13;0.85;;;;;;;20.27;28.32;102101.78;4534018;28;20132;-61
2022/11/12 08:46:21;;;;;;;1.30;1.20;;;;;;;20.27;28.54;102096.06;4532770;28;20045;-61
2022/11/12 08:48:50;;;;;;;1.10;1.00;;;;;;;20.27;28.77;102093.19;4531640;28;20585;-62
2022/11/12 08:51:19;;;;;;;1.52;1.00;;;;;;;20.27;28.82;102110.41;4533676;28;20045;-62
2022/11/12 08:53:48;;;;;;;3.03;1.30;;;;;;;20.26;28.98;102100.13;4533792;28;20033;-62
2022/11/12 08:56:17;;;;;;;1.98;1.30;;;;;;;20.24;28.84;102102.47;4534176;28;20053;-62
2022/11/12 08:58:46;;;;;;;1.67;1.20;;;;;;;20.24;29.09;102111.06;4534321;28;20053;-62
2022/11/12 09:01:15;;;;;;;1.40;1.25;;;;;;;20.24;29.09;102106.19;4533965;28;20068;-61
2022/11/12 09:03:44;;;;;;;2.63;1.60;;;;;;;20.23;29.35;102107.34;4534765;28;20045;-62
2022/11/12 09:06:13;;;;;;;1.80;1.40;;;;;;;20.24;29.39;102113.94;4535713;28;20029;-61
2022/11/12 09:08:42;;;;;;;1.90;1.27;;;;;;;20.23;29.63;102106.50;4533385;28;20925;-61
2022/11/12 09:11:11;;;;;;;1.92;1.40;;;;;;;20.24;29.63;102113.94;4533173;28;20053;-61
2022/11/12 09:13:40;;;;;;;1.52;1.20;;;;;;;20.23;29.58;102106.50;4533537;28;20025;-62
2022/11/12 09:16:09;;;;;;;1.20;1.10;;;;;;;20.23;29.76;102110.19;4533044;28;20041;-61
2022/11/12 09:18:38;;;;;;;1.63;1.25;;;;;;;20.23;29.56;102106.50;4534391;28;20049;-61
2022/11/12 09:21:10;;;;;;;1.60;1.13;;;;;;;20.23;30.12;102107.34;4535460;28;20025;-62
2022/11/12 09:23:39;;;;;;;1.88;1.20;;;;;;;20.22;29.85;102108.53;4533503;28;20116;-61
2022/11/12 09:26:08;;;;;;;1.60;1.20;;;;;;;20.24;29.35;102108.19;4534418;28;20092;-60
2022/11/12 09:28:37;;;;;;;1.27;1.17;;;;;;;20.26;29.07;102109.56;4534027;28;20045;-60
2022/11/12 09:31:07;;;;;;;1.90;1.30;;;;;;;20.26;29.02;102105.84;4534361;28;20053;-61
2022/11/12 09:33:36;;;;;;;1.40;1.20;;;;;;;20.26;29.78;102100.13;4533805;28;20049;-63
2022/11/12 09:36:06;;;;;;;1.40;1.15;;;;;;;20.25;30.25;102109.88;4534456;28;20044;-61
2022/11/12 09:38:35;;;;;;;2.22;1.10;;;;;;;20.24;30.39;102102.47;4536105;28;20572;-61
2022/11/12 09:41:16;;;;;;;1.42;1.10;;;;;;;20.25;30.78;102107.00;4533347;28;20045;-61
2022/11/12 09:43:50;;;;;;;1.33;1.20;;;;;;;20.25;30.94;102109.88;4533131;28;20045;-62
2022/11/12 09:46:48;;;;;;;2.03;1.40;;;;;;;20.27;30.90;102104.66;4536108;28;20040;-60
2022/11/12 09:49:19;;;;;;;1.63;1.25;;;;;;;20.27;31.04;102104.66;4532838;28;20044;-62
2022/11/12 09:51:55;;;;;;;1.63;1.20;;;;;;;20.27;30.82;102101.78;4541461;28;20151;-60
2022/11/12 09:54:27;;;;;;;1.80;1.48;;;;;;;20.28;30.97;102101.47;4533040;28;20041;-61
2022/11/12 09:56:56;;;;;;;2.33;1.10;;;;;;;20.29;31.07;102093.72;4532491;28;20045;-61
2022/11/12 09:59:36;;;;;;;1.70;1.20;;;;;;;20.29;30.94;102102.31;4533878;28;20379;-62
2022/11/12 10:02:24;;;;;;;1.48;1.23;;;;;;;20.31;30.83;102102.84;4533104;28;20960;-61
2022/11/12 10:05:24;;;;;;;1.45;1.30;;;;;;;20.31;30.81;102094.25;4532456;28;20041;-61
2022/11/12 10:08:19;;;;;;;1.50;1.30;;;;;;;20.30;31.10;102099.13;4532799;28;20036;-61
2022/11/12 10:10:56;;;;;;;1.80;1.52;;;;;;;20.30;31.00;102092.53;4532024;28;20833;-61
2022/11/12 10:13:28;;;;;;;2.05;1.70;;;;;;;20.30;31.36;102086.78;4533879;28;20053;-61
2022/11/12 10:19:23;;;;;;;1.80;1.40;;;;;;;20.29;31.93;102083.09;4532784;28;20045;-61
2022/11/12 10:22:20;;;;;;;2.20;1.40;;;;;;;20.32;32.41;102095.94;4532611;28;20049;-61
2022/11/12 10:24:49;;;;;;;1.83;1.60;;;;;;;20.24;32.61;102077.50;4533489;28;20564;-61
2022/11/12 10:27:21;;;;;;;1.85;1.40;;;;;;;20.31;32.92;102097.13;4530413;28;20049;-61
2022/11/12 10:30:03;;;;;;;2.42;1.40;;;;;;;20.31;32.95;102097.13;4531332;28;20707;-64
2022/11/12 10:32:35;;;;;;;1.73;1.48;;;;;;;20.31;33.07;102097.13;4533136;28;20049;-63
2022/11/12 10:35:04;;;;;;;1.45;1.30;;;;;;;20.30;33.32;102107.72;4532550;28;20053;-63
2022/11/12 10:37:48;;;;;;;2.10;1.70;;;;;;;20.27;33.31;102098.94;4526353;28;20037;-63
2022/11/12 10:40:19;;;;;;;1.60;1.23;;;;;;;20.31;33.25;102109.41;4531666;28;20041;-60
2022/11/12 10:42:59;;;;;;;2.20;1.40;;;;;;;20.31;33.41;102097.13;4533054;28;20127;-61
2022/11/12 10:45:29;;;;;;;2.35;1.83;;;;;;;20.32;34.19;102098.78;4532500;28;20834;-64
2022/11/12 10:47:58;;;;;;;1.80;1.02;;;;;;;20.32;33.49;102087.31;4532223;28;20620;-60
2022/11/12 10:50:38;;;;;;;1.30;1.20;;;;;;;20.32;33.32;102084.47;4533702;28;20053;-59
2022/11/12 10:53:11;;;;;;;1.30;1.20;;;;;;;20.33;33.25;102083.28;4533014;28;20089;-59
2022/11/12 10:56:01;;;;;;;2.08;1.35;;;;;;;20.34;33.74;102084.97;4523894;28;20049;-62
2022/11/12 10:58:31;;;;;;;1.83;1.30;;;;;;;20.35;34.08;102086.66;4531473;28;20484;-60
2022/11/12 11:01:01;;;;;;;1.85;1.50;;;;;;;20.36;34.05;102076.91;4533130;28;20622;-60
2022/11/12 11:03:43;;;;;;;3.50;1.60;;;;;;;20.35;34.24;102078.06;4531172;28;20041;-61
2022/11/12 11:06:15;;;;;;;2.10;1.33;;;;;;;20.35;34.20;102078.06;4531873;28;20040;-59
2022/11/12 11:08:47;;;;;;;1.80;1.42;;;;;;;20.37;33.80;102076.56;4531476;28;20537;-60
2022/11/12 11:11:16;;;;;;;2.10;1.35;;;;;;;20.38;34.07;102074.53;4530886;28;20477;-59
2022/11/12 11:13:47;;;;;;;1.70;1.30;;;;;;;20.27;34.34;102053.06;4533971;28;20050;-60
2022/11/12 11:16:18;;;;;;;2.13;1.10;;;;;;;20.37;34.02;102079.44;4536372;28;20045;-60
2022/11/12 11:19:00;;;;;;;1.30;1.20;;;;;;;20.35;34.36;102080.94;4536760;28;20037;-60
2022/11/12 11:21:57;;;;;;;1.35;1.15;;;;;;;20.36;34.25;102077.72;4535456;28;20466;-60
2022/11/12 11:24:41;;;;;;;1.60;1.33;;;;;;;20.37;34.36;102067.13;4536173;28;20052;-60
2022/11/12 11:27:29;;;;;;;2.60;1.30;;;;;;;20.36;33.92;102072.00;4535884;28;20541;-60
2022/11/12 11:30:14;;;;;;;1.35;1.25;;;;;;;20.38;33.87;102078.25;4536520;28;20044;-60
2022/11/12 11:33:08;;;;;;;1.70;0.93;;;;;;;20.38;33.69;102071.66;4534711;28;20080;-60
2022/11/12 11:35:52;;;;;;;1.55;1.10;;;;;;;20.37;33.41;102067.97;4536389;28;20663;-60
2022/11/12 11:38:44;;;;;;;1.67;1.20;;;;;;;20.39;32.98;102070.50;4533953;28;20036;-60
2022/11/12 11:41:42;;;;;;;1.88;1.23;;;;;;;20.36;32.85;102066.25;4534063;28;20139;-60
2022/11/12 11:44:39;;;;;;;1.42;1.10;;;;;;;20.40;33.63;102066.44;4533594;28;20132;-60
2022/11/12 11:47:26;;;;;;;1.70;1.20;;;;;;;20.39;33.91;102057.00;4534400;28;20311;-60
2022/11/12 11:50:23;;;;;;;1.13;1.02;;;;;;;20.40;34.26;102049.25;4533735;28;20054;-60
2022/11/12 11:53:10;;;;;;;1.42;1.10;;;;;;;20.40;34.48;102052.97;4537950;28;20041;-60
2022/11/12 11:56:01;;;;;;;1.77;1.10;;;;;;;20.42;34.47;102059.19;4537000;28;20045;-60
2022/11/12 11:59:05;;;;;;;1.50;1.10;;;;;;;20.41;34.85;102051.78;4535850;28;20112;-60
2022/11/12 12:02:19;;;;;;;1.48;1.02;;;;;;;20.44;35.33;102044.53;4536488;28;20045;-60
2022/11/12 12:04:58;;;;;;;1.48;1.20;;;;;;;20.41;34.67;102042.31;4525068;28;20045;-60
2022/11/12 12:07:40;;;;;;;1.88;1.10;;;;;;;20.45;34.60;102043.38;4535936;28;20123;-60
2022/11/12 12:10:24;;;;;;;2.28;1.20;;;;;;;20.45;34.95;102041.34;4532875;28;20053;-60
2022/11/12 12:13:13;;;;;;;1.30;1.13;;;;;;;20.47;35.21;102032.41;4535665;28;20041;-60
2022/11/12 12:16:11;;;;;;;1.60;1.20;;;;;;;20.47;35.03;102032.41;4534424;28;20041;-60